Cordova, Maryland
Current Conditions -  °F | °C
As of 5:50 PM on Monday 22 Dec 2014 (Local Time) from KESN Reporting Station
Moderate Rain Moderate Rain  
Wind Chill: 35°   Ceiling: 800
Heat Index: 39°   Visibility: 2.5mi
Dew Point: 39°   Wind: 6mph
Humidity: 100%   Direction: 20°NNE
Pressure: 30.17"   Gusts: NA
Location:  38.88°N, 76°W
Report Text: KESN 222250Z 02005KT 2 1/2SM RA BKN008 OVC015 04/04 A3017
Loading
Personal Weather Stations






























Interactive Weather Map New forecast layout! Learn more

10-Day Weather Forecast

Advertisements
Track Severe Weather on mobile